createdAt,value
2018-02-06T00:00:35.634Z,0.51
2018-02-06T00:02:29.030Z,0.57
2018-02-06T00:03:29.010Z,0.61
2018-02-06T00:05:22.384Z,0.79
2018-02-06T00:06:22.385Z,0.67
2018-02-06T00:08:15.780Z,0.60
2018-02-06T00:09:15.760Z,0.60
2018-02-06T00:11:09.133Z,0.49
2018-02-06T00:12:09.132Z,0.49
2018-02-06T00:14:02.538Z,0.65
2018-02-06T00:15:02.519Z,0.70
2018-02-06T00:16:55.891Z,0.58
2018-02-06T00:17:55.889Z,0.65
2018-02-06T00:19:49.284Z,0.61
2018-02-06T00:20:49.264Z,0.49
2018-02-06T00:22:42.640Z,0.46
2018-02-06T00:23:42.639Z,0.61
2018-02-06T00:25:36.032Z,0.70
2018-02-06T00:26:36.013Z,0.65
2018-02-06T00:28:29.389Z,0.75
2018-02-06T00:29:29.386Z,0.62
2018-02-06T00:31:22.286Z,0.60
2018-02-06T00:32:22.265Z,0.51
2018-02-06T00:34:15.640Z,0.53
2018-02-06T00:35:15.638Z,0.60
2018-02-06T00:37:09.033Z,0.61
2018-02-06T00:38:09.012Z,0.62
2018-02-06T00:40:02.387Z,0.62
2018-02-06T00:41:02.386Z,0.64
2018-02-06T00:42:55.780Z,0.51
2018-02-06T00:43:55.762Z,0.62
2018-02-06T00:45:49.140Z,0.71
2018-02-06T00:46:49.136Z,0.64
2018-02-06T00:48:42.531Z,0.71
2018-02-06T00:49:42.511Z,0.57
2018-02-06T00:51:35.888Z,0.48
2018-02-06T00:52:35.887Z,0.51
2018-02-06T00:54:29.279Z,0.46
2018-02-06T00:55:29.261Z,0.52
2018-02-06T00:57:22.637Z,0.61
2018-02-06T00:58:22.633Z,0.57
2018-02-06T01:00:16.029Z,0.42
2018-02-06T01:01:16.007Z,0.52
2018-02-06T01:03:09.385Z,0.49
2018-02-06T01:04:09.384Z,0.45
2018-02-06T01:06:02.780Z,0.53
2018-02-06T01:07:02.759Z,0.46
2018-02-06T01:08:56.154Z,0.43
2018-02-06T01:09:56.132Z,0.46
2018-02-06T01:11:49.510Z,0.45
2018-02-06T01:12:49.509Z,0.58
2018-02-06T01:14:42.901Z,0.42
2018-02-06T01:15:42.880Z,0.49
2018-02-06T01:17:36.258Z,0.42
2018-02-06T01:18:36.256Z,0.38
2018-02-06T01:20:29.654Z,0.51
2018-02-06T01:21:29.634Z,0.48
2018-02-06T01:23:23.010Z,0.57
2018-02-06T01:24:23.008Z,0.51
2018-02-06T01:26:16.404Z,0.49
2018-02-06T01:27:16.384Z,0.57
2018-02-06T01:29:09.756Z,0.45
2018-02-06T01:30:09.756Z,0.51
2018-02-06T01:32:03.151Z,0.64
2018-02-06T01:33:03.133Z,0.51
2018-02-06T01:34:56.506Z,0.65
2018-02-06T01:35:56.505Z,0.52
2018-02-06T01:37:49.901Z,0.61
2018-02-06T01:38:49.880Z,0.52
2018-02-06T01:40:43.258Z,0.61
2018-02-06T01:41:43.255Z,0.53
2018-02-06T01:43:36.651Z,0.61
2018-02-06T01:44:36.629Z,0.52
2018-02-06T01:46:30.030Z,0.58
2018-02-06T01:47:30.003Z,0.71
2018-02-06T01:49:23.379Z,0.65
2018-02-06T01:50:23.378Z,0.68
2018-02-06T01:52:16.773Z,0.52
2018-02-06T01:53:16.755Z,0.33
2018-02-06T01:55:10.129Z,0.39
2018-02-06T01:56:10.129Z,0.36
2018-02-06T01:58:03.523Z,0.39
2018-02-06T01:59:03.502Z,0.31
2018-02-06T02:00:56.383Z,0.30
2018-02-06T02:01:56.382Z,0.36
2018-02-06T02:03:49.778Z,0.42
2018-02-06T02:04:49.759Z,0.53
2018-02-06T02:06:43.133Z,0.45
2018-02-06T02:07:43.132Z,0.38
2018-02-06T02:09:36.526Z,0.27
2018-02-06T02:10:36.511Z,0.34
2018-02-06T02:12:29.890Z,0.34
2018-02-06T02:13:29.892Z,0.33
2018-02-06T02:15:23.288Z,0.34
2018-02-06T02:16:23.264Z,0.41
2018-02-06T02:18:16.640Z,0.36
2018-02-06T02:19:16.641Z,0.42
2018-02-06T02:21:09.540Z,0.53
2018-02-06T02:22:09.517Z,0.51
2018-02-06T02:24:02.895Z,0.49
2018-02-06T02:25:02.894Z,0.52
2018-02-06T02:26:56.293Z,0.52
2018-02-06T02:27:56.273Z,0.41
2018-02-06T02:29:49.152Z,0.36
2018-02-06T02:30:49.257Z,0.34
2018-02-06T02:32:42.542Z,0.43
2018-02-06T02:33:42.527Z,0.41
2018-02-06T02:35:35.922Z,0.52
2018-02-06T02:36:35.898Z,0.46
2018-02-06T02:38:29.276Z,0.64
2018-02-06T02:39:29.279Z,0.52
2018-02-06T02:41:22.668Z,0.53
2018-02-06T04:39:51.050Z,0.20
2018-02-06T04:40:51.158Z,0.24
2018-02-06T04:42:44.446Z,0.28
2018-02-06T04:43:44.461Z,0.38
2018-02-06T04:45:37.851Z,0.38
2018-02-06T04:46:37.829Z,0.43
2018-02-06T04:48:31.231Z,0.51
2018-02-06T04:49:31.184Z,0.39
2018-02-06T04:51:24.562Z,0.38
2018-02-06T04:52:24.569Z,0.27
2018-02-06T04:54:17.987Z,0.42
2018-02-06T04:55:17.935Z,0.23
2018-02-06T04:57:11.326Z,0.42
2018-02-06T04:58:11.321Z,0.39
2018-02-06T05:00:04.720Z,0.39
2018-02-06T05:01:04.705Z,0.28
2018-02-06T05:02:58.130Z,0.16
2018-02-06T05:03:58.079Z,0.03
2018-02-06T05:05:51.455Z,0.12
2018-02-06T05:06:51.462Z,0.21
2018-02-06T05:08:44.861Z,0.24
2018-02-06T05:09:44.852Z,0.21
2018-02-06T05:11:38.245Z,0.12
2018-02-06T05:12:38.219Z,0.25
2018-02-06T05:14:31.623Z,0.23
2018-02-06T05:15:31.595Z,0.25
2018-02-06T05:17:24.973Z,0.09
2018-02-06T05:18:24.971Z,0.13
2018-02-06T05:20:18.391Z,0.16
2018-02-06T05:21:18.349Z,0.15
2018-02-06T05:23:11.723Z,0.23
2018-02-06T05:24:11.728Z,0.20
2018-02-06T05:26:05.118Z,0.25
2018-02-06T05:27:05.107Z,0.27
2018-02-06T05:28:58.477Z,0.21
2018-02-06T05:29:58.499Z,0.23
2018-02-06T05:31:51.895Z,0.07
2018-02-06T05:32:51.852Z,0.09
2018-02-06T05:34:45.230Z,0.18
2018-02-06T05:35:45.232Z,0.24
2018-02-06T05:37:38.625Z,0.27
2018-02-06T05:38:38.607Z,0.30
2018-02-06T05:40:31.985Z,0.42
2018-02-06T05:41:31.988Z,0.39
2018-02-06T05:43:25.385Z,0.38
2018-02-06T05:44:25.362Z,0.38
2018-02-06T05:46:18.771Z,0.38
2018-02-06T05:47:18.738Z,0.33
2018-02-06T05:49:12.115Z,0.38
2018-02-06T05:50:12.124Z,0.41
2018-02-06T05:52:05.513Z,0.45
2018-02-06T05:53:05.492Z,0.43
2018-02-06T05:54:58.867Z,0.45
2018-02-06T05:55:58.876Z,0.43
2018-02-06T05:57:52.265Z,0.52
2018-02-06T05:58:52.246Z,0.49
2018-02-06T06:00:45.623Z,0.49
2018-02-06T06:01:45.621Z,0.48
2018-02-06T06:03:39.062Z,0.49
2018-02-06T06:04:39.006Z,0.51
2018-02-06T06:06:32.380Z,0.53
2018-02-06T06:07:32.377Z,0.53
2018-02-06T06:09:26.798Z,0.51
2018-02-06T06:10:26.749Z,0.51
2018-02-06T06:12:20.144Z,0.45
2018-02-06T06:13:20.137Z,0.42
2018-02-06T06:15:13.530Z,0.41
2018-02-06T06:16:13.512Z,0.39
2018-02-06T06:18:06.909Z,0.39
2018-02-06T06:19:06.886Z,0.39
2018-02-06T06:21:00.269Z,0.34
2018-02-06T06:22:00.271Z,0.38
2018-02-06T06:23:53.667Z,0.28
2018-02-06T06:24:53.662Z,0.36
2018-02-06T06:26:47.024Z,0.43
2018-02-06T06:27:47.022Z,0.41
2018-02-06T06:29:40.432Z,0.41
2018-02-06T06:30:40.414Z,0.34
2018-02-06T06:32:33.778Z,0.48
2018-02-06T06:33:33.776Z,0.49
2018-02-06T06:35:27.174Z,0.53
2018-02-06T06:36:27.155Z,0.53
2018-02-06T06:38:20.542Z,0.51
2018-02-06T06:39:20.562Z,0.51
2018-02-06T06:41:13.944Z,0.57
2018-02-06T06:42:13.922Z,0.57
2018-02-06T06:44:07.300Z,0.51
2018-02-06T06:45:07.300Z,0.49
2018-02-06T06:47:00.696Z,0.58
2018-02-06T06:48:00.679Z,0.49
2018-02-06T06:49:54.058Z,0.36
2018-02-06T06:50:54.057Z,0.41
2018-02-06T06:52:47.454Z,0.43
2018-02-06T06:53:47.436Z,0.41
2018-02-06T06:55:40.850Z,0.38
2018-02-06T06:56:40.815Z,0.45
2018-02-06T06:58:34.207Z,0.49
2018-02-06T06:59:34.192Z,0.62
2018-02-06T07:01:27.598Z,0.52
2018-02-06T07:02:27.595Z,0.57
2018-02-06T07:04:20.948Z,0.57
2018-02-06T07:05:20.948Z,0.60
2018-02-06T07:07:14.362Z,0.58
2018-02-06T07:08:14.340Z,0.61
2018-02-06T07:10:07.710Z,0.65
2018-02-06T07:11:07.708Z,0.52
2018-02-06T07:13:01.116Z,0.53
2018-02-06T07:14:01.095Z,0.57
2018-02-06T07:15:54.471Z,0.67
2018-02-06T07:16:54.471Z,0.68
2018-02-06T07:18:47.912Z,0.75
2018-02-06T07:19:47.861Z,0.71
2018-02-06T07:21:41.267Z,0.72
2018-02-06T07:22:41.269Z,0.78
2018-02-06T07:24:34.684Z,0.79
2018-02-06T07:25:34.663Z,0.76
2018-02-06T07:27:28.057Z,0.79
2018-02-06T07:28:28.037Z,0.82
2018-02-06T07:30:21.457Z,0.76
2018-02-06T07:31:21.439Z,0.80
2018-02-06T07:33:14.816Z,0.79
2018-02-06T07:34:14.799Z,0.89
2018-02-06T07:36:08.174Z,0.70
2018-02-06T07:37:08.178Z,0.82
2018-02-06T07:39:01.572Z,0.82
2018-02-06T07:40:01.552Z,0.72
2018-02-06T07:41:54.928Z,0.88
2018-02-06T07:42:54.933Z,0.86
2018-02-06T07:44:48.333Z,0.76
2018-02-06T07:45:48.314Z,0.86
2018-02-06T07:47:41.688Z,0.83
2018-02-06T07:48:41.692Z,0.89
2018-02-06T07:50:35.086Z,0.83
2018-02-06T07:51:35.068Z,0.94
2018-02-06T07:53:28.446Z,0.86
2018-02-06T07:54:28.477Z,0.96
2018-02-06T07:56:21.854Z,1.03
2018-02-06T07:57:21.834Z,1.07
2018-02-06T07:59:15.213Z,1.12
2018-02-06T08:00:15.228Z,1.19
2018-02-06T08:02:08.635Z,1.04
2018-02-06T08:03:08.594Z,1.07
2018-02-06T08:05:02.969Z,0.98
2018-02-06T08:06:02.983Z,0.94
2018-02-06T08:07:56.389Z,0.88
2018-02-06T08:08:56.347Z,0.88
2018-02-06T08:10:49.726Z,0.72
2018-02-06T08:11:49.734Z,0.83
2018-02-06T08:13:43.123Z,0.94
2018-02-06T08:14:43.110Z,0.89
2018-02-06T08:16:36.486Z,0.94
2018-02-06T08:17:36.482Z,0.89
2018-02-06T08:19:29.880Z,0.94
2018-02-06T08:20:29.860Z,0.89
2018-02-06T08:22:23.297Z,0.94
2018-02-06T08:23:23.271Z,1.03
2018-02-06T08:25:16.652Z,1.12
2018-02-06T08:26:16.651Z,1.15
2018-02-06T08:28:10.047Z,1.12
2018-02-06T08:29:10.045Z,1.01
2018-02-06T08:31:03.418Z,1.03
2018-02-06T08:32:03.410Z,0.83
2018-02-06T08:33:56.805Z,0.88
2018-02-06T08:34:56.786Z,1.00
2018-02-06T08:36:50.162Z,1.04
2018-02-06T08:37:50.162Z,1.06
2018-02-06T08:39:43.558Z,1.14
2018-02-06T08:40:43.546Z,1.24
2018-02-06T08:42:36.918Z,1.39
2018-02-06T08:43:36.928Z,1.40
2018-02-06T08:45:30.310Z,1.51
2018-02-06T08:46:30.293Z,1.62
2018-02-06T08:48:23.688Z,1.75
2018-02-06T08:49:23.676Z,1.75
2018-02-06T08:51:17.071Z,1.75
2018-02-06T08:52:17.052Z,1.69
2018-02-06T08:54:10.433Z,1.87
2018-02-06T08:55:10.429Z,1.89
2018-02-06T08:57:03.828Z,1.73
2018-02-06T08:58:03.808Z,1.65
2018-02-06T08:59:57.193Z,1.80
2018-02-06T09:00:57.188Z,1.83
2018-02-06T09:02:50.590Z,1.83
2018-02-06T09:03:50.568Z,1.87
2018-02-06T09:05:43.945Z,1.62
2018-02-06T09:06:43.968Z,1.73
2018-02-06T09:08:37.385Z,1.58
2018-02-06T09:09:37.343Z,1.47
2018-02-06T09:11:30.738Z,1.50
2018-02-06T09:12:30.724Z,1.57
2018-02-06T09:14:24.128Z,1.57
2018-02-06T09:15:24.118Z,1.37
2018-02-06T09:17:17.514Z,1.43
2018-02-06T09:18:17.493Z,1.55
2018-02-06T09:20:10.861Z,1.60
2018-02-06T09:21:10.876Z,1.65
2018-02-06T09:23:04.285Z,1.75
2018-02-06T09:24:04.242Z,1.62
2018-02-06T09:25:57.625Z,1.62
2018-02-06T09:26:57.623Z,1.75
2018-02-06T09:28:51.035Z,1.76
2018-02-06T09:29:51.007Z,1.72
2018-02-06T09:31:44.405Z,1.80
2018-02-06T09:32:44.398Z,1.76
2018-02-06T09:34:37.808Z,1.82
2018-02-06T09:35:37.788Z,1.73
2018-02-06T09:37:31.169Z,1.94
2018-02-06T09:38:31.176Z,1.87
2018-02-06T09:40:24.568Z,2.02
2018-02-06T09:41:24.553Z,1.91
2018-02-06T09:43:17.933Z,2.08
2018-02-06T09:44:17.930Z,1.80
2018-02-06T09:46:11.339Z,1.73
2018-02-06T09:47:11.319Z,1.65
2018-02-06T09:49:04.712Z,1.80
2018-02-06T09:50:04.711Z,1.87
2018-02-06T09:51:58.108Z,1.89
2018-02-06T09:52:58.091Z,2.01
2018-02-06T09:54:51.475Z,2.15
2018-02-06T09:55:51.477Z,2.06
2018-02-06T09:57:44.872Z,1.91
2018-02-06T09:58:44.853Z,1.75
2018-02-06T10:00:38.295Z,1.68
2018-02-06T10:01:38.234Z,1.78
2018-02-06T10:03:31.613Z,1.57
2018-02-06T10:04:31.612Z,1.64
2018-02-06T10:06:25.014Z,1.76
2018-02-06T10:07:24.989Z,1.79
2018-02-06T10:09:18.370Z,1.89
2018-02-06T10:10:18.381Z,1.89
2018-02-06T10:12:11.777Z,1.85
2018-02-06T10:13:11.760Z,1.89
2018-02-06T10:15:05.140Z,1.85
2018-02-06T10:16:05.138Z,2.12
2018-02-06T10:17:58.537Z,2.16
2018-02-06T10:18:58.517Z,2.26
2018-02-06T10:20:51.901Z,2.33
2018-02-06T10:21:51.898Z,2.48
2018-02-06T10:23:45.326Z,2.52
2018-02-06T10:24:45.284Z,2.55
2018-02-06T10:26:38.671Z,2.53
2018-02-06T10:27:38.695Z,2.49
2018-02-06T10:29:32.071Z,2.28
2018-02-06T10:30:32.058Z,2.33
2018-02-06T10:32:25.435Z,2.33
2018-02-06T10:33:25.441Z,2.27
2018-02-06T10:35:18.836Z,2.45
2018-02-06T10:36:18.823Z,2.55
2018-02-06T10:38:12.270Z,2.48
2018-02-06T10:39:12.276Z,2.58
2018-02-06T10:41:05.676Z,2.53
2018-02-06T10:42:05.702Z,2.59
2018-02-06T10:43:59.034Z,2.44
2018-02-06T10:44:59.041Z,2.41
2018-02-06T10:46:52.433Z,2.41
2018-02-06T10:47:52.435Z,2.22
2018-02-06T10:49:45.816Z,2.35
2018-02-06T10:50:45.799Z,2.40
2018-02-06T10:52:40.192Z,2.37
2018-02-06T10:53:40.188Z,2.41
2018-02-06T10:55:33.601Z,2.58
2018-02-06T10:56:33.590Z,2.46
2018-02-06T10:58:26.966Z,2.45
2018-02-06T10:59:26.985Z,2.28
2018-02-06T11:01:20.362Z,2.52
2018-02-06T11:02:20.344Z,2.61
2018-02-06T11:04:13.730Z,2.77
2018-02-06T11:05:13.734Z,2.79
2018-02-06T11:07:07.149Z,2.70
2018-02-06T11:08:07.121Z,2.74
2018-02-06T11:10:00.592Z,2.64
2018-02-06T11:11:00.502Z,2.77
2018-02-06T11:12:53.879Z,2.92
2018-02-06T11:13:53.882Z,2.95
2018-02-06T11:15:47.289Z,2.97
2018-02-06T11:16:47.276Z,2.97
2018-02-06T11:18:40.645Z,3.05
2018-02-06T11:19:40.648Z,3.05
2018-02-06T11:21:34.067Z,3.28
2018-02-06T11:22:34.032Z,3.42
2018-02-06T11:24:27.414Z,3.40
2018-02-06T11:25:27.417Z,3.54
2018-02-06T11:27:20.813Z,3.46
2018-02-06T11:28:20.797Z,3.57
2018-02-06T11:30:14.180Z,3.42
2018-02-06T11:31:14.180Z,3.43
2018-02-06T11:33:07.583Z,3.40
2018-02-06T11:34:07.565Z,3.40
2018-02-06T11:36:00.950Z,3.23
2018-02-06T11:37:00.958Z,3.46
2018-02-06T11:38:54.367Z,3.25
2018-02-06T11:39:54.345Z,3.44
2018-02-06T11:41:47.732Z,3.82
2018-02-06T11:42:47.733Z,3.96
2018-02-06T11:44:41.141Z,3.72
2018-02-06T11:45:41.117Z,3.83
2018-02-06T11:47:34.501Z,3.76
2018-02-06T11:48:34.511Z,3.65
2018-02-06T11:50:27.905Z,3.42
2018-02-06T11:51:27.889Z,3.65
2018-02-06T11:53:21.297Z,3.70
2018-02-06T11:54:21.278Z,3.42
2018-02-06T11:56:14.670Z,3.60
2018-02-06T11:57:14.666Z,3.62
2018-02-06T11:59:08.065Z,3.58
2018-02-06T12:00:08.049Z,3.43
2018-02-06T12:02:01.429Z,3.28
2018-02-06T12:03:01.445Z,3.44
2018-02-06T12:04:54.840Z,3.36
2018-02-06T12:05:54.835Z,3.54
2018-02-06T12:07:48.269Z,3.75
2018-02-06T12:08:48.269Z,3.80
2018-02-06T12:10:41.673Z,4.91
2018-02-06T12:11:41.659Z,4.98
2018-02-06T12:13:35.043Z,5.10
2018-02-06T12:14:35.044Z,5.14
2018-02-06T12:16:28.448Z,5.19
2018-02-06T12:17:28.433Z,5.64
2018-02-06T12:19:21.834Z,5.57
2018-02-06T12:20:21.836Z,5.13
2018-02-06T12:22:15.226Z,5.10
2018-02-06T12:23:15.211Z,5.30
2018-02-06T12:25:08.599Z,6.18
2018-02-06T12:26:08.606Z,6.00
2018-02-06T12:28:02.004Z,6.07
2018-02-06T12:29:01.990Z,5.93
2018-02-06T12:30:55.381Z,5.73
2018-02-06T12:31:55.384Z,5.64
2018-02-06T12:33:48.790Z,5.30
2018-02-06T12:34:48.776Z,5.25
2018-02-06T12:36:42.160Z,5.93
2018-02-06T12:37:42.191Z,5.63
2018-02-06T12:39:35.573Z,5.34
2018-02-06T12:40:35.561Z,5.12
2018-02-06T12:42:29.016Z,5.35
2018-02-06T12:43:28.959Z,5.16
2018-02-06T12:45:22.347Z,5.52
2018-02-06T12:46:22.351Z,5.52
2018-02-06T12:48:15.756Z,5.68
2018-02-06T12:49:15.745Z,5.88
2018-02-06T12:51:09.132Z,5.74
2018-02-06T12:52:09.133Z,5.60
2018-02-06T12:54:02.536Z,5.50
2018-02-06T12:55:02.528Z,5.71
2018-02-06T12:56:55.913Z,5.81
2018-02-06T12:57:55.915Z,5.55
2018-02-06T12:59:49.324Z,5.57
2018-02-06T13:00:49.308Z,6.03
2018-02-06T13:02:42.694Z,5.98
2018-02-06T13:03:42.696Z,6.00
2018-02-06T13:05:36.102Z,5.86
2018-02-06T13:06:36.085Z,5.88
2018-02-06T13:08:29.474Z,5.91
2018-02-06T13:09:29.477Z,5.83
2018-02-06T13:11:22.883Z,5.89
2018-02-06T13:12:22.870Z,5.70
2018-02-06T13:14:16.258Z,5.32
2018-02-06T13:15:16.262Z,5.45
2018-02-06T13:17:09.669Z,6.25
2018-02-06T13:18:09.655Z,6.40
2018-02-06T13:20:03.069Z,6.46
2018-02-06T13:21:03.044Z,6.99
2018-02-06T13:22:56.434Z,7.23
2018-02-06T13:23:56.437Z,7.22
2018-02-06T13:25:49.881Z,7.44
2018-02-06T13:26:49.832Z,7.53
2018-02-06T13:28:43.266Z,7.27
2018-02-06T13:29:43.273Z,7.34
2018-02-06T13:31:36.679Z,7.31
2018-02-06T13:32:36.683Z,7.42
2018-02-06T13:34:30.056Z,7.19
2018-02-06T13:35:30.062Z,6.66
2018-02-06T13:37:23.465Z,6.66
2018-02-06T13:38:23.453Z,6.79
2018-02-06T13:40:17.841Z,6.68
2018-02-06T13:41:17.844Z,6.83
2018-02-06T13:43:11.286Z,6.46
2018-02-06T13:44:11.274Z,6.63
2018-02-06T13:46:04.658Z,6.48
2018-02-06T13:47:04.670Z,6.58
2018-02-06T13:48:58.071Z,6.16
2018-02-06T13:49:58.059Z,5.89
2018-02-06T13:51:51.447Z,5.74
2018-02-06T13:52:51.453Z,5.81
2018-02-06T13:54:44.862Z,5.85
2018-02-06T13:55:44.850Z,5.74
2018-02-06T13:57:38.252Z,5.50
2018-02-06T13:58:38.251Z,5.46
2018-02-06T14:00:31.652Z,5.35
2018-02-06T14:01:31.639Z,5.35
2018-02-06T14:03:25.028Z,5.43
2018-02-06T14:04:25.037Z,5.40
2018-02-06T14:06:18.440Z,4.99
2018-02-06T14:07:18.423Z,4.84
2018-02-06T14:09:11.809Z,4.86
2018-02-06T14:10:11.817Z,5.02
2018-02-06T14:12:05.218Z,5.14
2018-02-06T14:13:05.208Z,5.01
2018-02-06T14:14:58.645Z,4.72
2018-02-06T14:15:58.592Z,4.86
2018-02-06T14:17:51.985Z,4.79
2018-02-06T14:18:51.995Z,4.84
2018-02-06T14:20:45.400Z,4.89
2018-02-06T14:21:45.380Z,4.86
2018-02-06T14:23:38.766Z,4.84
2018-02-06T14:24:38.768Z,4.84
2018-02-06T14:26:32.188Z,4.75
2018-02-06T14:27:32.168Z,4.86
2018-02-06T14:29:25.562Z,4.99
2018-02-06T14:30:25.567Z,4.91
2018-02-06T14:32:18.973Z,4.91
2018-02-06T14:33:18.959Z,4.70
2018-02-06T14:35:12.338Z,4.89
2018-02-06T14:36:12.347Z,4.65
2018-02-06T14:38:05.742Z,4.61
2018-02-06T14:39:05.728Z,4.62
2018-02-06T14:40:59.115Z,4.75
2018-02-06T14:41:59.129Z,4.72
2018-02-06T14:43:52.518Z,4.70
2018-02-06T14:44:52.501Z,4.77
2018-02-06T14:46:45.887Z,4.46
2018-02-06T14:47:45.888Z,4.65
2018-02-06T14:49:39.296Z,5.22
2018-02-06T14:50:39.274Z,5.43
2018-02-06T14:52:32.713Z,6.25
2018-02-06T14:53:32.662Z,6.47
2018-02-06T14:55:26.061Z,6.84
2018-02-06T14:56:26.050Z,6.47
2018-02-06T14:58:19.451Z,5.60
2018-02-06T14:59:19.437Z,5.41
2018-02-06T15:01:12.817Z,5.14
2018-02-06T15:02:12.822Z,5.16
2018-02-06T15:04:06.222Z,5.10
2018-02-06T15:05:06.205Z,5.04
2018-02-06T15:06:59.596Z,4.84
2018-02-06T15:07:59.599Z,4.75
2018-02-06T15:09:52.998Z,4.47
2018-02-06T15:10:52.981Z,4.54
2018-02-06T15:12:46.366Z,4.55
2018-02-06T15:13:46.370Z,4.54
2018-02-06T15:15:39.773Z,4.40
2018-02-06T15:16:39.753Z,4.43
2018-02-06T15:18:33.140Z,4.19
2018-02-06T15:19:33.142Z,4.24
2018-02-06T15:21:26.546Z,4.15
2018-02-06T15:22:26.530Z,4.18
2018-02-06T15:24:19.907Z,4.01
2018-02-06T15:25:19.931Z,4.06
2018-02-06T15:27:13.316Z,3.92
2018-02-06T15:28:13.296Z,3.96
2018-02-06T15:30:06.738Z,3.89
2018-02-06T15:31:06.683Z,3.97
2018-02-06T15:33:00.071Z,3.96
2018-02-06T15:34:00.098Z,4.04
2018-02-06T15:35:53.471Z,4.10
2018-02-06T15:36:53.462Z,4.01
2018-02-06T15:38:46.836Z,4.08
2018-02-06T15:39:46.840Z,4.10
2018-02-06T15:41:40.240Z,4.15
2018-02-06T15:42:40.223Z,4.18
2018-02-06T15:44:33.607Z,4.18
2018-02-06T15:45:33.607Z,4.18
2018-02-06T15:47:27.006Z,4.04
2018-02-06T15:48:26.993Z,4.00
2018-02-06T15:50:20.376Z,3.96
2018-02-06T15:51:20.373Z,3.90
2018-02-06T15:53:13.774Z,3.88
2018-02-06T15:54:13.759Z,3.83
2018-02-06T15:56:07.140Z,3.68
2018-02-06T15:57:07.140Z,3.64
2018-02-06T15:59:00.544Z,3.67
2018-02-06T16:00:00.531Z,3.61
2018-02-06T16:01:53.913Z,3.65
2018-02-06T16:02:53.913Z,3.68
2018-02-06T16:04:47.310Z,3.67
2018-02-06T16:05:47.292Z,3.68
2018-02-06T16:07:40.693Z,3.57
2018-02-06T16:08:40.728Z,3.52
2018-02-06T16:10:34.076Z,3.43
2018-02-06T16:11:34.063Z,3.47
2018-02-06T16:13:27.467Z,3.27
2018-02-06T16:14:27.440Z,3.25
2018-02-06T16:16:20.832Z,3.28
2018-02-06T16:17:20.823Z,3.27
2018-02-06T16:19:14.225Z,3.12
2018-02-06T16:20:14.209Z,3.16
2018-02-06T16:22:07.627Z,3.06
2018-02-06T16:23:07.596Z,3.05
2018-02-06T16:25:01.001Z,2.92
2018-02-06T16:26:00.982Z,2.94
2018-02-06T16:27:54.366Z,2.89
2018-02-06T16:28:54.361Z,2.88
2018-02-06T16:30:47.767Z,2.81
2018-02-06T16:31:47.746Z,2.74
2018-02-06T16:33:41.125Z,2.70
2018-02-06T16:34:41.131Z,2.77
2018-02-06T16:36:34.527Z,2.74
2018-02-06T16:37:34.507Z,2.74
2018-02-06T16:39:27.889Z,2.73
2018-02-06T16:40:27.895Z,2.64
2018-02-06T16:42:21.288Z,2.58
2018-02-06T16:43:21.272Z,2.55
2018-02-06T16:45:14.652Z,2.53
2018-02-06T16:46:14.656Z,2.44
2018-02-06T16:48:08.050Z,2.41
2018-02-06T16:49:08.033Z,2.38
2018-02-06T16:51:01.434Z,2.41
2018-02-06T16:52:01.413Z,2.45
2018-02-06T16:53:54.819Z,2.45
2018-02-06T16:54:54.793Z,2.41
2018-02-06T16:56:48.204Z,2.44
2018-02-06T16:57:48.184Z,2.37
2018-02-06T16:59:41.566Z,2.44
2018-02-06T17:00:41.564Z,2.40
2018-02-06T17:02:34.961Z,2.33
2018-02-06T17:03:34.943Z,2.27
2018-02-06T17:05:28.324Z,2.31
2018-02-06T17:06:28.325Z,2.30
2018-02-06T17:08:21.724Z,2.27
2018-02-06T17:09:21.705Z,2.30
2018-02-06T17:11:15.086Z,2.33
2018-02-06T17:12:15.086Z,2.22
2018-02-06T17:14:08.485Z,2.20
2018-02-06T17:15:08.468Z,2.06
2018-02-06T17:17:01.859Z,2.12
2018-02-06T17:18:01.860Z,1.94
2018-02-06T17:19:55.294Z,1.89
2018-02-06T17:20:55.270Z,2.02
2018-02-06T17:22:48.650Z,1.91
2018-02-06T17:23:48.656Z,2.01
2018-02-06T17:25:42.052Z,2.02
2018-02-06T17:26:42.032Z,1.99
2018-02-06T17:28:35.414Z,2.08
2018-02-06T17:29:35.413Z,1.98
2018-02-06T17:31:28.810Z,2.01
2018-02-06T17:32:28.795Z,2.04
2018-02-06T17:34:22.172Z,1.93
2018-02-06T17:35:22.173Z,1.89
2018-02-06T17:37:15.574Z,1.83
2018-02-06T17:38:15.555Z,1.79
2018-02-06T17:40:08.996Z,1.72
2018-02-06T17:41:08.935Z,1.65
2018-02-06T17:43:02.317Z,1.75
2018-02-06T17:44:02.316Z,1.71
2018-02-06T17:45:55.765Z,1.78
2018-02-06T17:46:55.785Z,1.73
2018-02-06T17:48:49.137Z,1.69
2018-02-06T17:49:49.095Z,1.64
2018-02-06T17:51:42.541Z,1.71
2018-02-06T17:52:42.484Z,1.71
2018-02-06T17:54:35.900Z,1.64
2018-02-06T17:55:35.889Z,1.64
2018-02-06T17:57:29.298Z,1.69
2018-02-06T17:58:29.260Z,1.61
2018-02-06T18:00:23.678Z,1.61
2018-02-06T18:01:23.671Z,1.68
2018-02-06T18:03:18.064Z,1.58
2018-02-06T18:04:18.051Z,1.61
2018-02-06T18:06:11.440Z,1.44
2018-02-06T18:07:11.416Z,1.42
2018-02-06T18:09:04.837Z,1.43
2018-02-06T18:10:04.804Z,1.44
2018-02-06T18:11:58.173Z,1.40
2018-02-06T18:12:58.209Z,1.46
2018-02-06T18:14:51.602Z,1.47
2018-02-06T18:15:51.593Z,1.44
2018-02-06T18:17:44.936Z,1.51
2018-02-06T18:18:44.968Z,1.51
2018-02-06T18:20:38.338Z,1.51
2018-02-06T18:21:38.356Z,1.43
2018-02-06T18:23:32.744Z,1.43
2018-02-06T18:24:32.709Z,1.39
2018-02-06T18:26:26.129Z,1.33
2018-02-06T18:27:26.166Z,1.46
2018-02-06T18:29:19.565Z,1.44
2018-02-06T18:30:19.520Z,1.46
2018-02-06T18:32:12.904Z,1.46
2018-02-06T18:33:12.865Z,1.51
2018-02-06T18:35:06.376Z,1.55
2018-02-06T18:36:06.307Z,1.51
2018-02-06T18:37:59.654Z,1.51
2018-02-06T18:38:59.658Z,1.47
2018-02-06T18:40:53.092Z,1.39
2018-02-06T18:41:53.064Z,1.42
2018-02-06T18:43:46.448Z,1.34
2018-02-06T18:44:46.478Z,1.25
2018-02-06T18:46:39.836Z,1.37
2018-02-06T18:47:39.837Z,1.26
2018-02-06T18:49:33.236Z,1.21
2018-02-06T18:50:33.206Z,1.15
2018-02-06T18:52:26.594Z,1.22
2018-02-06T18:53:26.655Z,1.18
2018-02-06T18:55:20.972Z,1.22
2018-02-06T18:56:20.993Z,1.14
2018-02-06T18:58:14.394Z,1.18
2018-02-06T18:59:14.381Z,1.07
2018-02-06T19:01:07.725Z,1.16
2018-02-06T19:02:07.766Z,1.06
2018-02-06T19:04:01.124Z,1.14
2018-02-06T19:05:01.106Z,1.10
2018-02-06T19:06:54.503Z,1.16
2018-02-06T19:07:54.488Z,1.14
2018-02-06T19:09:47.878Z,1.04
2018-02-06T19:10:47.861Z,1.07
2018-02-06T19:12:41.326Z,1.03
2018-02-06T19:13:41.265Z,1.06
2018-02-06T19:15:34.676Z,0.94
2018-02-06T19:16:34.642Z,0.80
2018-02-06T19:18:28.103Z,0.72
2018-02-06T19:19:28.026Z,0.78
2018-02-06T19:21:21.384Z,0.76
2018-02-06T19:22:21.382Z,0.78
2018-02-06T19:24:14.828Z,0.86
2018-02-06T19:25:14.764Z,0.78
2018-02-06T19:27:08.140Z,0.78
2018-02-06T19:28:08.140Z,0.85
2018-02-06T19:30:01.541Z,0.82
2018-02-06T19:31:01.517Z,0.86
2018-02-06T19:32:54.898Z,0.85
2018-02-06T19:33:54.897Z,0.79
2018-02-06T19:35:48.302Z,0.82
2018-02-06T19:36:48.302Z,0.83
2018-02-06T19:38:41.664Z,0.85
2018-02-06T19:39:41.685Z,0.89
2018-02-06T19:41:35.064Z,0.88
2018-02-06T19:42:35.083Z,0.71
2018-02-06T19:44:28.462Z,0.80
2018-02-06T19:45:28.435Z,0.80
2018-02-06T19:47:22.846Z,0.82
2018-02-06T19:48:22.818Z,0.83
2018-02-06T19:50:16.189Z,0.79
2018-02-06T19:51:16.209Z,0.70
2018-02-06T19:53:09.595Z,0.76
2018-02-06T19:54:09.562Z,0.75
2018-02-06T19:56:02.993Z,0.72
2018-02-06T19:57:02.967Z,0.65
2018-02-06T19:58:57.361Z,0.52
2018-02-06T19:59:57.323Z,0.62
2018-02-06T20:01:50.737Z,0.67
2018-02-06T20:02:50.750Z,0.67
2018-02-06T20:04:44.076Z,0.62
2018-02-06T20:05:44.109Z,0.65
2018-02-06T20:07:37.503Z,0.71
2018-02-06T20:08:37.492Z,0.67
2018-02-06T20:10:30.856Z,0.61
2018-02-06T20:11:30.868Z,0.58
2018-02-06T20:13:24.247Z,0.58
2018-02-06T20:14:24.246Z,0.57
2018-02-06T20:16:17.594Z,0.53
2018-02-06T20:17:17.593Z,0.46
2018-02-06T20:19:11.055Z,0.48
2018-02-06T20:20:10.980Z,0.60
2018-02-06T20:22:05.422Z,0.58
2018-02-06T20:23:05.361Z,0.58
2018-02-06T20:24:58.792Z,0.58
2018-02-06T20:25:58.791Z,0.58
2018-02-06T20:27:52.144Z,0.62
2018-02-06T20:28:52.148Z,0.57
2018-02-06T20:30:45.627Z,0.51
2018-02-06T20:31:45.526Z,0.51
2018-02-06T20:33:38.910Z,0.57
2018-02-06T20:34:38.904Z,0.52
2018-02-06T20:36:32.299Z,0.52
2018-02-06T20:37:32.299Z,0.49
2018-02-06T20:39:25.713Z,0.52
2018-02-06T20:40:25.666Z,0.53
2018-02-06T20:42:19.066Z,0.61
2018-02-06T20:43:19.069Z,0.57
2018-02-06T20:45:13.445Z,0.64
2018-02-06T20:46:13.428Z,0.72
2018-02-06T20:48:06.861Z,0.58
2018-02-06T20:49:06.836Z,0.65
2018-02-06T20:51:00.225Z,0.65
2018-02-06T20:52:00.204Z,0.70
2018-02-06T20:53:53.592Z,0.70
2018-02-06T20:54:53.589Z,0.65
2018-02-06T20:56:47.020Z,0.65
2018-02-06T20:57:46.967Z,0.62
2018-02-06T20:59:40.367Z,0.67
2018-02-06T21:00:40.345Z,0.72
2018-02-06T21:02:33.723Z,0.67
2018-02-06T21:03:33.724Z,0.64
2018-02-06T21:05:27.141Z,0.61
2018-02-06T21:06:27.113Z,0.76
2018-02-06T21:08:20.500Z,0.68
2018-02-06T21:09:20.505Z,0.79
2018-02-06T21:11:13.893Z,0.76